Time;durP1;ratioP1;P1;durP2;ratioP2;P2;SDS_P1;SDS_P2;PMS_P1;PMS_P2;Temp;Humidity;BMP_temperature;BMP_pressure;BME280_temperature;BME280_humidity;BME280_pressure;Samples;Min_cycle;Max_cycle;Signal;HPM_P1;HPM_P2
2023/02/07 00:01:11;;;;;;;43.50;31.07;;;-5.40;99.90;;;;;;5060086;28;20211;-43
2023/02/07 00:03:37;;;;;;;41.05;32.65;;;-5.40;99.90;;;;;;5059494;28;20428;-44
2023/02/07 00:06:14;;;;;;;41.20;32.27;;;-5.40;99.90;;;;;;5059911;28;20216;-44
2023/02/07 00:08:40;;;;;;;42.35;31.50;;;-5.50;99.90;;;;;;5059608;28;20177;-47
2023/02/07 00:11:08;;;;;;;41.97;33.10;;;-5.50;99.90;;;;;;5059604;28;20464;-45
2023/02/07 00:13:34;;;;;;;40.83;32.42;;;-5.50;99.90;;;;;;5060170;28;20181;-47
2023/02/07 00:16:01;;;;;;;37.53;31.70;;;-5.50;99.90;;;;;;5059362;28;20183;-45
2023/02/07 00:18:26;;;;;;;44.40;32.92;;;-5.50;99.90;;;;;;5059706;28;20986;-44
2023/02/07 00:21:00;;;;;;;38.70;31.20;;;-5.60;99.90;;;;;;5059183;28;20205;-47
2023/02/07 00:23:27;;;;;;;38.40;31.80;;;-5.60;99.90;;;;;;5059306;28;20663;-44
2023/02/07 00:25:53;;;;;;;44.15;32.08;;;-5.60;99.90;;;;;;5059129;28;20662;-43
2023/02/07 00:28:18;;;;;;;43.13;33.73;;;-5.60;99.90;;;;;;5059646;28;20173;-49
2023/02/07 00:30:44;;;;;;;40.00;32.90;;;-5.60;99.90;;;;;;5060005;28;20268;-45
2023/02/07 00:33:10;;;;;;;37.33;29.83;;;-5.60;99.90;;;;;;5059793;28;20212;-46
2023/02/07 00:35:35;;;;;;;37.50;31.40;;;-5.60;99.90;;;;;;5059381;28;20234;-45
2023/02/07 00:38:01;;;;;;;37.20;31.33;;;-5.60;99.90;;;;;;5059499;28;20232;-44
2023/02/07 00:40:26;;;;;;;42.87;33.10;;;-5.60;99.90;;;;;;5059241;28;20231;-46
2023/02/07 00:42:52;;;;;;;44.37;34.67;;;-5.60;99.90;;;;;;5059509;28;20254;-45
2023/02/07 00:45:17;;;;;;;46.23;33.93;;;-5.60;99.90;;;;;;5059505;28;20182;-45
2023/02/07 00:47:43;;;;;;;39.23;31.67;;;-5.70;99.90;;;;;;5059187;28;20197;-47
2023/02/07 00:50:09;;;;;;;38.70;32.60;;;-5.70;99.90;;;;;;5057785;28;20236;-45
2023/02/07 00:52:34;;;;;;;43.90;33.97;;;-5.70;99.90;;;;;;5059300;28;20666;-45
2023/02/07 00:55:00;;;;;;;40.70;32.77;;;-5.80;99.90;;;;;;5057906;28;20189;-47
2023/02/07 00:57:25;;;;;;;43.93;34.10;;;-5.80;99.90;;;;;;5058716;28;20477;-48
2023/02/07 00:59:51;;;;;;;41.00;32.73;;;-5.80;99.90;;;;;;5059193;28;20181;-43
2023/02/07 01:02:16;;;;;;;38.33;32.23;;;-5.90;99.90;;;;;;5059204;28;20226;-46
2023/02/07 01:04:42;;;;;;;46.13;35.33;;;-5.90;99.90;;;;;;5059342;28;20189;-50
2023/02/07 01:07:08;;;;;;;41.70;33.50;;;-5.90;99.90;;;;;;5059013;28;20268;-44
2023/02/07 01:09:33;;;;;;;41.87;33.20;;;-5.90;99.90;;;;;;5058894;28;20198;-42
2023/02/07 01:11:59;;;;;;;41.67;32.17;;;-5.90;99.90;;;;;;5059199;28;21075;-43
2023/02/07 01:14:25;;;;;;;46.17;34.50;;;-5.90;99.90;;;;;;5058902;28;20280;-45
2023/02/07 01:16:50;;;;;;;39.87;33.10;;;-5.80;99.90;;;;;;5058617;28;20219;-44
2023/02/07 01:19:16;;;;;;;47.80;36.20;;;-5.80;99.90;;;;;;5058838;28;20247;-43
2023/02/07 01:21:42;;;;;;;50.78;36.78;;;-5.90;99.90;;;;;;5059061;28;20212;-44
2023/02/07 01:24:08;;;;;;;50.03;35.53;;;-5.90;99.90;;;;;;5058752;28;20235;-42
2023/02/07 01:26:35;;;;;;;44.00;36.13;;;-5.90;99.90;;;;;;5058635;28;20203;-45
2023/02/07 01:29:01;;;;;;;44.78;34.35;;;-5.90;99.90;;;;;;5057151;28;20185;-44
2023/02/07 01:31:27;;;;;;;44.92;34.60;;;-6.00;99.90;;;;;;5058982;28;20201;-45
2023/02/07 01:33:58;;;;;;;48.08;36.45;;;-6.00;99.90;;;;;;5058570;28;20280;-45
2023/02/07 01:36:25;;;;;;;46.80;36.63;;;-6.00;99.90;;;;;;5058593;28;20185;-43
2023/02/07 01:38:52;;;;;;;48.38;36.95;;;-6.00;99.90;;;;;;5062487;28;20661;-43
2023/02/07 01:41:19;;;;;;;45.20;34.90;;;-6.00;99.90;;;;;;5062395;28;20209;-47
2023/02/07 01:44:00;;;;;;;41.03;32.30;;;-6.10;99.90;;;;;;5062266;28;20189;-46
2023/02/07 01:46:27;;;;;;;41.40;33.45;;;-6.10;99.90;;;;;;5062563;28;20683;-44
2023/02/07 01:48:55;;;;;;;50.13;35.75;;;-6.10;99.90;;;;;;5062277;28;20619;-44
2023/02/07 01:51:22;;;;;;;44.35;34.95;;;-6.10;99.90;;;;;;5061776;28;20232;-44
2023/02/07 01:53:48;;;;;;;50.42;37.00;;;-6.20;99.90;;;;;;5062170;28;20673;-45
2023/02/07 01:56:15;;;;;;;43.03;35.28;;;-6.20;99.90;;;;;;5062109;28;20193;-42
2023/02/07 01:58:41;;;;;;;41.63;32.95;;;-6.30;99.90;;;;;;5061848;28;20177;-43
2023/02/07 02:01:12;;;;;;;42.80;32.93;;;-6.30;99.90;;;;;;5061848;28;20966;-44
2023/02/07 02:03:42;;;;;;;42.10;33.60;;;-6.40;99.90;;;;;;5060530;28;20687;-42
2023/02/07 02:06:10;;;;;;;40.22;33.40;;;-6.40;99.90;;;;;;5060426;28;20238;-50
2023/02/07 02:08:35;;;;;;;45.63;34.28;;;-6.40;99.90;;;;;;5062272;28;20271;-46
2023/02/07 02:11:38;;;;;;;43.93;33.50;;;-6.40;99.90;;;;;;5062027;28;20264;-43
2023/02/07 02:14:04;;;;;;;39.65;32.97;;;-6.40;99.90;;;;;;5061607;28;20407;-45
2023/02/07 02:16:56;;;;;;;45.60;34.10;;;-6.40;99.90;;;;;;5062088;28;20558;-47
2023/02/07 02:19:39;;;;;;;46.42;34.05;;;-6.40;99.90;;;;;;5037461;28;20220;-42
2023/02/07 02:22:05;;;;;;;47.13;34.05;;;-6.50;99.90;;;;;;5061996;28;20631;-44
2023/02/07 02:24:49;;;;;;;45.97;33.67;;;-6.50;99.90;;;;;;5059738;28;20284;-47
2023/02/07 02:27:45;;;;;;;46.30;33.22;;;-6.50;99.90;;;;;;5061944;28;20177;-47
2023/02/07 02:30:44;;;;;;;45.33;34.45;;;-6.50;99.90;;;;;;5061582;28;20209;-43
2023/02/07 02:33:24;;;;;;;43.60;33.47;;;-6.50;99.90;;;;;;5061666;28;20670;-45
2023/02/07 02:36:20;;;;;;;45.28;34.92;;;-6.50;99.90;;;;;;5061508;28;20181;-45
2023/02/07 02:39:14;;;;;;;44.65;33.92;;;-6.50;99.90;;;;;;5061460;28;20291;-42
2023/02/07 02:41:44;;;;;;;43.75;34.60;;;-6.60;99.90;;;;;;5055405;28;20293;-45
2023/02/07 02:44:17;;;;;;;43.95;35.08;;;-6.60;99.90;;;;;;5061134;28;20200;-46
2023/02/07 02:46:44;;;;;;;40.78;34.13;;;-6.60;99.90;;;;;;5061786;28;20251;-43
2023/02/07 02:49:13;;;;;;;39.47;33.00;;;-6.60;99.90;;;;;;5061061;28;20185;-45
2023/02/07 02:51:39;;;;;;;49.30;35.70;;;-6.60;99.90;;;;;;5060311;28;20235;-44
2023/02/07 02:54:26;;;;;;;45.27;34.80;;;-6.50;99.90;;;;;;5061023;28;20185;-43
2023/02/07 02:57:18;;;;;;;42.00;32.30;;;-6.50;99.90;;;;;;5061268;28;20197;-46
2023/02/07 02:59:58;;;;;;;39.42;33.40;;;-6.40;99.90;;;;;;5060725;28;20810;-43
2023/02/07 03:02:50;;;;;;;43.42;34.67;;;-6.50;99.90;;;;;;5060873;28;20230;-44
2023/02/07 03:05:31;;;;;;;45.80;33.33;;;-6.50;99.90;;;;;;5052383;28;20193;-44
2023/02/07 03:08:15;;;;;;;47.38;33.80;;;-6.60;99.90;;;;;;5060501;28;20176;-45
2023/02/07 03:11:10;;;;;;;45.90;34.22;;;-6.60;99.90;;;;;;5061255;28;20272;-44
2023/02/07 03:13:51;;;;;;;41.15;31.98;;;-6.70;99.90;;;;;;5057831;28;20207;-44
2023/02/07 03:16:28;;;;;;;42.92;32.78;;;-6.60;99.90;;;;;;5060536;28;20181;-43
2023/02/07 03:19:14;;;;;;;41.00;32.40;;;-6.70;99.90;;;;;;5060323;28;20431;-44
2023/02/07 03:21:46;;;;;;;41.63;32.25;;;-6.70;99.90;;;;;;5060364;28;20239;-45
2023/02/07 03:24:22;;;;;;;46.10;34.65;;;-6.70;99.90;;;;;;5060444;28;20506;-44
2023/02/07 03:26:51;;;;;;;41.55;32.50;;;-6.80;99.90;;;;;;5059400;28;20216;-50
2023/02/07 03:29:19;;;;;;;41.97;33.30;;;-6.70;99.90;;;;;;5060779;28;20177;-44
2023/02/07 03:31:50;;;;;;;44.13;33.55;;;-6.70;99.90;;;;;;5059312;28;20200;-46
2023/02/07 03:34:23;;;;;;;43.55;32.75;;;-6.80;99.90;;;;;;5060443;28;20189;-46
2023/02/07 03:36:57;;;;;;;45.63;31.92;;;-6.70;99.90;;;;;;5060455;28;20439;-48
2023/02/07 03:39:23;;;;;;;43.83;31.75;;;-6.80;99.90;;;;;;5060798;28;20193;-43
2023/02/07 03:42:06;;;;;;;38.22;31.90;;;-6.70;99.90;;;;;;5060232;28;20201;-42
2023/02/07 03:44:35;;;;;;;46.28;31.95;;;-6.80;99.90;;;;;;5060350;28;20185;-43
2023/02/07 03:47:01;;;;;;;40.97;33.33;;;-6.70;99.90;;;;;;5059962;28;20184;-45
2023/02/07 03:49:26;;;;;;;39.13;31.93;;;-6.80;99.90;;;;;;5059796;28;20916;-44
2023/02/07 03:51:52;;;;;;;40.77;32.60;;;-6.90;99.90;;;;;;5060648;28;20430;-44
2023/02/07 03:54:18;;;;;;;39.93;32.03;;;-6.90;99.90;;;;;;5059772;28;20176;-45
2023/02/07 03:56:43;;;;;;;36.87;31.33;;;-6.90;99.90;;;;;;5059899;28;20258;-43
2023/02/07 03:59:09;;;;;;;36.40;28.93;;;-6.90;99.90;;;;;;5059582;28;20246;-43
2023/02/07 04:01:41;;;;;;;39.10;31.50;;;-6.90;99.90;;;;;;5059218;28;20823;-44
2023/02/07 04:04:10;;;;;;;38.10;30.70;;;-6.90;99.90;;;;;;5060658;28;20273;-43
2023/02/07 04:06:36;;;;;;;38.05;30.17;;;-6.80;99.90;;;;;;5059694;28;20694;-43
2023/02/07 04:09:03;;;;;;;37.33;30.50;;;-6.90;99.90;;;;;;5059631;28;20227;-46
2023/02/07 04:11:29;;;;;;;37.78;30.65;;;-6.90;99.90;;;;;;5060298;28;20216;-44
2023/02/07 04:13:54;;;;;;;39.00;30.63;;;-7.00;99.90;;;;;;5059400;28;20268;-43
2023/02/07 04:16:20;;;;;;;40.77;31.20;;;-7.00;99.90;;;;;;5059677;28;20769;-45
2023/02/07 04:18:45;;;;;;;37.67;30.30;;;-7.00;99.90;;;;;;5059489;28;20264;-48
2023/02/07 04:21:11;;;;;;;39.37;31.23;;;-7.00;99.90;;;;;;5059783;28;20652;-47
2023/02/07 04:23:37;;;;;;;36.47;30.70;;;-7.00;99.90;;;;;;5059636;28;20181;-48
2023/02/07 04:26:03;;;;;;;37.97;30.47;;;-7.00;99.90;;;;;;5059496;28;20256;-46
2023/02/07 04:28:28;;;;;;;39.17;30.77;;;-7.00;99.90;;;;;;5059619;28;20181;-46
2023/02/07 04:30:55;;;;;;;38.00;29.87;;;-7.00;99.90;;;;;;5059153;28;20197;-46
2023/02/07 04:33:21;;;;;;;36.00;29.33;;;-7.10;99.90;;;;;;5059462;28;20424;-44
2023/02/07 04:35:57;;;;;;;38.72;29.90;;;-7.10;99.90;;;;;;5059944;28;20185;-44
2023/02/07 04:38:23;;;;;;;40.40;31.25;;;-7.00;99.90;;;;;;5059456;28;20200;-43
2023/02/07 04:40:49;;;;;;;34.70;30.17;;;-7.00;99.90;;;;;;5058190;28;20212;-44
2023/02/07 04:43:15;;;;;;;36.42;29.85;;;-7.00;99.90;;;;;;5058967;28;20188;-46
2023/02/07 04:45:41;;;;;;;37.03;30.00;;;-7.00;99.90;;;;;;5057460;28;20614;-44
2023/02/07 04:48:06;;;;;;;39.57;30.60;;;-7.00;99.90;;;;;;5056712;28;20200;-47
2023/02/07 04:50:32;;;;;;;39.10;28.87;;;-7.00;99.90;;;;;;5058885;28;20286;-46
2023/02/07 04:52:58;;;;;;;41.63;31.50;;;-6.90;99.90;;;;;;5058857;28;20192;-43
2023/02/07 04:55:23;;;;;;;40.57;31.17;;;-6.90;99.90;;;;;;5059339;28;20593;-43
2023/02/07 04:57:49;;;;;;;35.80;27.30;;;-6.90;99.90;;;;;;5056709;28;20185;-46
2023/02/07 05:00:16;;;;;;;35.67;28.50;;;-6.90;99.90;;;;;;5059486;28;20463;-48
2023/02/07 05:02:43;;;;;;;37.13;28.52;;;-6.90;99.90;;;;;;5060034;28;20176;-46
2023/02/07 05:05:09;;;;;;;36.35;28.02;;;-6.90;99.90;;;;;;5059833;28;20183;-45
2023/02/07 05:07:35;;;;;;;39.35;28.92;;;-6.90;99.90;;;;;;5058814;28;20263;-46
2023/02/07 05:10:01;;;;;;;36.50;26.70;;;-6.90;99.90;;;;;;5059493;28;20292;-44
2023/02/07 05:12:26;;;;;;;34.63;29.00;;;-6.90;99.90;;;;;;5061687;28;20402;-44
2023/02/07 05:14:52;;;;;;;45.23;28.50;;;-6.90;99.90;;;;;;5063136;28;20400;-46
2023/02/07 05:17:17;;;;;;;34.47;28.70;;;-6.90;99.90;;;;;;5063644;28;20747;-47
2023/02/07 05:19:44;;;;;;;36.00;27.07;;;-6.90;99.90;;;;;;5063648;28;20181;-45
2023/02/07 05:22:09;;;;;;;36.80;28.00;;;-6.90;99.90;;;;;;5063806;28;20189;-47
2023/02/07 05:24:35;;;;;;;38.63;28.97;;;-6.90;99.90;;;;;;5062475;28;20238;-48
2023/02/07 05:27:01;;;;;;;34.27;27.87;;;-6.90;99.90;;;;;;5061927;28;20437;-45
2023/02/07 05:29:26;;;;;;;34.97;26.33;;;-6.90;99.90;;;;;;5061989;28;20185;-46
2023/02/07 05:34:36;;;;;;;34.85;27.83;;;-6.80;99.90;;;;;;5061255;28;20700;-46
2023/02/07 05:37:01;;;;;;;36.07;27.73;;;-6.90;99.90;;;;;;5061202;28;20193;-46
2023/02/07 05:39:27;;;;;;;36.10;26.33;;;-6.90;99.90;;;;;;5063213;28;20402;-47
2023/02/07 05:41:53;;;;;;;33.83;27.67;;;-6.90;99.90;;;;;;5063580;28;20567;-45
2023/02/07 05:44:18;;;;;;;47.70;28.70;;;-6.90;99.90;;;;;;5063027;28;20213;-45
2023/02/07 05:46:44;;;;;;;39.27;29.53;;;-6.90;99.90;;;;;;5062618;28;20189;-44
2023/02/07 05:49:09;;;;;;;35.83;28.00;;;-6.90;99.90;;;;;;5060847;28;20169;-44
2023/02/07 05:51:35;;;;;;;35.87;26.90;;;-7.00;99.90;;;;;;5062504;28;20698;-44
2023/02/07 05:54:01;;;;;;;40.97;28.80;;;-6.90;99.90;;;;;;5060866;28;20204;-43
2023/02/07 05:56:26;;;;;;;40.80;27.50;;;-6.90;99.90;;;;;;5062600;28;20196;-45
2023/02/07 05:58:52;;;;;;;41.30;28.93;;;-6.90;99.90;;;;;;5062147;28;20181;-46
2023/02/07 06:01:18;;;;;;;34.58;28.73;;;-6.90;99.90;;;;;;5061923;28;20201;-43
2023/02/07 06:03:43;;;;;;;38.07;27.60;;;-6.90;99.90;;;;;;5060705;28;20224;-45
2023/02/07 06:06:10;;;;;;;35.60;28.20;;;-6.90;99.90;;;;;;5062094;28;20466;-45
2023/02/07 06:08:36;;;;;;;36.08;28.95;;;-6.80;99.90;;;;;;5060528;28;20185;-44
2023/02/07 06:11:01;;;;;;;34.03;24.73;;;-6.90;99.90;;;;;;5062172;28;20196;-44
2023/02/07 06:13:27;;;;;;;37.70;27.47;;;-6.80;99.90;;;;;;5062033;28;20180;-46
2023/02/07 06:15:52;;;;;;;35.63;27.60;;;-6.80;99.90;;;;;;5062551;28;20635;-44
2023/02/07 06:18:18;;;;;;;35.10;26.63;;;-6.90;99.90;;;;;;5062156;28;20690;-46
2023/02/07 06:20:44;;;;;;;34.97;26.80;;;-6.90;99.90;;;;;;5062136;28;20489;-44
2023/02/07 06:23:09;;;;;;;36.97;27.77;;;-7.00;99.90;;;;;;5061336;28;20519;-45
2023/02/07 06:25:35;;;;;;;34.00;28.00;;;-6.90;99.90;;;;;;5061961;28;20260;-44
2023/02/07 06:28:00;;;;;;;35.73;27.20;;;-7.00;99.90;;;;;;5061378;28;20698;-44
2023/02/07 06:30:26;;;;;;;38.93;27.30;;;-7.00;99.90;;;;;;5061536;28;20191;-45
2023/02/07 06:32:53;;;;;;;38.00;25.40;;;-7.00;99.90;;;;;;5061753;28;20213;-43
2023/02/07 06:35:18;;;;;;;34.40;27.45;;;-7.00;99.90;;;;;;5061606;28;20565;-44
2023/02/07 06:37:44;;;;;;;37.73;26.93;;;-7.00;99.90;;;;;;5061759;28;20189;-45
2023/02/07 06:40:10;;;;;;;38.90;27.20;;;-7.00;99.90;;;;;;5059919;28;20265;-45
2023/02/07 06:42:36;;;;;;;38.00;26.67;;;-7.00;99.90;;;;;;5061317;28;20200;-43
2023/02/07 06:45:02;;;;;;;29.70;26.20;;;-7.00;99.90;;;;;;5061481;28;20757;-45
2023/02/07 06:47:27;;;;;;;40.22;27.27;;;-7.00;99.90;;;;;;5061309;28;20924;-46
2023/02/07 06:49:53;;;;;;;41.50;29.27;;;-7.00;99.90;;;;;;5061387;28;20598;-44
2023/02/07 06:52:19;;;;;;;42.30;31.07;;;-7.00;99.90;;;;;;5061420;28;20190;-44
2023/02/07 06:54:44;;;;;;;45.67;32.80;;;-7.00;99.90;;;;;;5061148;28;20251;-48
2023/02/07 06:57:10;;;;;;;41.07;29.00;;;-7.00;99.90;;;;;;5061769;28;20447;-45
2023/02/07 06:59:35;;;;;;;45.17;29.00;;;-7.00;99.90;;;;;;5060757;28;20288;-46
2023/02/07 07:02:02;;;;;;;50.23;35.10;;;-7.00;99.90;;;;;;5061790;28;20204;-45
2023/02/07 07:04:28;;;;;;;62.38;37.95;;;-7.00;99.90;;;;;;5059509;28;20189;-44
2023/02/07 07:06:53;;;;;;;48.37;32.90;;;-7.10;99.90;;;;;;5060963;28;20235;-45
2023/02/07 07:09:19;;;;;;;36.70;28.43;;;-7.10;99.90;;;;;;5060977;28;20488;-46
2023/02/07 07:11:45;;;;;;;39.20;29.30;;;-7.10;99.90;;;;;;5060851;28;20775;-50
2023/02/07 07:14:11;;;;;;;36.63;29.40;;;-7.00;99.90;;;;;;5061512;28;20208;-46
2023/02/07 07:16:37;;;;;;;42.28;29.30;;;-7.00;99.90;;;;;;5060623;28;20189;-44
2023/02/07 07:19:03;;;;;;;41.53;28.80;;;-7.00;99.90;;;;;;5060415;28;20193;-44
2023/02/07 07:21:29;;;;;;;38.28;28.05;;;-6.90;99.90;;;;;;5059200;28;20588;-44
2023/02/07 07:23:55;;;;;;;34.27;27.07;;;-6.90;99.90;;;;;;5060494;28;20173;-44
2023/02/07 07:26:20;;;;;;;33.83;27.10;;;-6.80;99.90;;;;;;5060709;28;20643;-46
2023/02/07 07:28:46;;;;;;;37.67;28.10;;;-6.80;99.90;;;;;;5060833;28;20264;-43
2023/02/07 07:31:12;;;;;;;33.43;26.63;;;-6.70;99.90;;;;;;5060460;28;20768;-44
2023/02/07 07:33:38;;;;;;;38.40;28.02;;;-6.70;99.90;;;;;;5060659;28;20375;-46
2023/02/07 07:36:04;;;;;;;37.03;28.53;;;-6.60;99.90;;;;;;5059437;28;20623;-44
2023/02/07 07:38:30;;;;;;;36.70;28.67;;;-6.60;99.90;;;;;;5060669;28;20627;-45
2023/02/07 07:40:56;;;;;;;39.15;27.42;;;-6.60;99.90;;;;;;5060454;28;20982;-46
2023/02/07 07:43:23;;;;;;;37.10;28.05;;;-6.50;99.90;;;;;;5059035;28;20697;-45
2023/02/07 07:45:54;;;;;;;32.25;26.40;;;-6.50;99.90;;;;;;5061005;28;20297;-46
2023/02/07 07:48:21;;;;;;;36.35;28.27;;;-6.50;99.90;;;;;;5055995;28;20209;-46
2023/02/07 07:50:47;;;;;;;38.75;29.25;;;-6.40;99.90;;;;;;5059742;28;20241;-44
2023/02/07 07:53:13;;;;;;;35.03;27.60;;;-6.30;99.90;;;;;;5059783;28;20185;-43
2023/02/07 07:55:39;;;;;;;39.78;27.75;;;-6.30;99.90;;;;;;5059605;28;20201;-43
2023/02/07 07:58:04;;;;;;;40.83;29.43;;;-6.20;99.90;;;;;;5059988;28;20216;-42
2023/02/07 08:00:30;;;;;;;39.13;26.47;;;-6.10;99.90;;;;;;5059951;28;20262;-42
2023/02/07 08:02:55;;;;;;;40.20;29.27;;;-6.00;99.90;;;;;;5059897;28;20212;-44
2023/02/07 08:05:22;;;;;;;41.80;30.43;;;-5.70;99.90;;;;;;5059974;28;20184;-44
2023/02/07 08:07:49;;;;;;;39.08;30.55;;;-5.50;99.90;;;;;;5059610;28;20184;-43
2023/02/07 08:10:15;;;;;;;42.88;32.97;;;-5.10;99.90;;;;;;5059934;28;20185;-44
2023/02/07 08:12:41;;;;;;;38.83;31.52;;;-4.60;99.90;;;;;;5059994;28;20200;-46
2023/02/07 08:15:08;;;;;;;37.57;30.90;;;-4.00;99.90;;;;;;5058442;28;20189;-43
2023/02/07 08:17:34;;;;;;;43.33;34.05;;;-3.50;99.90;;;;;;5060219;28;20281;-42
2023/02/07 08:20:00;;;;;;;44.95;34.65;;;-2.90;99.90;;;;;;5059681;28;20181;-47
2023/02/07 08:22:26;;;;;;;41.70;34.67;;;-2.30;99.90;;;;;;5059804;28;20225;-47
2023/02/07 08:24:51;;;;;;;45.10;36.20;;;-2.10;99.90;;;;;;5059349;28;20196;-45
2023/02/07 08:27:17;;;;;;;47.50;36.53;;;-1.60;99.90;;;;;;5059733;28;20261;-45
2023/02/07 08:29:44;;;;;;;50.47;36.47;;;-1.00;99.90;;;;;;5059630;28;20699;-43
2023/02/07 08:32:10;;;;;;;38.40;31.95;;;-0.70;99.90;;;;;;5059538;28;20177;-44
2023/02/07 08:34:38;;;;;;;39.60;32.93;;;-0.10;99.90;;;;;;5059745;28;20637;-42
2023/02/07 08:37:05;;;;;;;39.72;32.00;;;0.20;99.90;;;;;;5059706;28;20690;-43
2023/02/07 08:39:33;;;;;;;40.33;31.60;;;0.60;99.90;;;;;;5059653;28;20278;-48
2023/02/07 08:41:58;;;;;;;34.10;30.40;;;0.80;99.90;;;;;;5059418;28;20219;-44
2023/02/07 08:44:24;;;;;;;35.27;31.43;;;1.00;99.90;;;;;;5059693;28;20671;-43
2023/02/07 08:46:51;;;;;;;36.00;30.63;;;1.50;99.90;;;;;;5058009;28;20204;-45
2023/02/07 08:49:16;;;;;;;34.97;30.67;;;1.60;99.90;;;;;;5059264;28;20414;-43
2023/02/07 08:51:42;;;;;;;33.97;30.27;;;1.80;99.40;;;;;;5059114;28;20223;-45
2023/02/07 08:54:08;;;;;;;37.40;33.43;;;2.20;99.60;;;;;;5059199;28;20252;-47
2023/02/07 08:56:34;;;;;;;33.93;30.33;;;2.50;95.40;;;;;;5057926;28;20561;-44
2023/02/07 08:58:59;;;;;;;36.70;30.13;;;2.40;95.30;;;;;;5059602;28;20614;-44
2023/02/07 09:01:25;;;;;;;34.13;30.57;;;2.40;95.30;;;;;;5059489;28;20204;-44
2023/02/07 09:03:55;;;;;;;37.20;33.00;;;2.80;94.70;;;;;;5059909;28;20726;-44
2023/02/07 09:06:22;;;;;;;36.97;33.17;;;3.20;94.00;;;;;;5058047;28;20671;-45
2023/02/07 09:08:47;;;;;;;37.83;31.50;;;3.60;91.60;;;;;;5059124;28;20173;-43
2023/02/07 09:11:14;;;;;;;35.57;31.60;;;4.10;88.50;;;;;;5059777;28;20208;-45
2023/02/07 09:13:40;;;;;;;35.50;31.80;;;4.20;87.70;;;;;;5059744;28;20569;-44
2023/02/07 09:16:06;;;;;;;36.72;32.83;;;4.80;83.60;;;;;;5059627;28;20188;-45
2023/02/07 09:18:33;;;;;;;37.43;33.60;;;4.90;78.80;;;;;;5059114;28;20182;-44
2023/02/07 09:20:59;;;;;;;35.95;32.30;;;4.90;76.40;;;;;;5059120;28;20459;-46
2023/02/07 09:23:24;;;;;;;36.73;32.97;;;5.30;79.90;;;;;;5058873;28;20711;-43
2023/02/07 09:25:53;;;;;;;35.63;31.97;;;5.40;74.80;;;;;;5059317;28;20197;-48
2023/02/07 09:28:21;;;;;;;36.00;32.30;;;5.30;70.90;;;;;;5059088;28;20692;-47
2023/02/07 09:30:47;;;;;;;36.47;32.65;;;4.90;70.90;;;;;;5058977;28;20200;-45
2023/02/07 09:33:13;;;;;;;37.90;32.67;;;4.50;72.90;;;;;;5058985;28;20679;-43
2023/02/07 09:35:42;;;;;;;36.10;32.42;;;4.40;78.60;;;;;;5059147;28;20207;-43
2023/02/07 09:38:18;;;;;;;35.22;31.50;;;4.70;77.90;;;;;;5059097;28;20313;-43
2023/02/07 09:40:47;;;;;;;33.75;30.25;;;5.20;77.60;;;;;;5059161;28;20286;-44
2023/02/07 09:43:17;;;;;;;36.20;32.40;;;5.30;72.70;;;;;;5058908;28;20238;-45
2023/02/07 09:45:47;;;;;;;35.87;32.17;;;5.70;69.60;;;;;;5059052;28;20904;-43
2023/02/07 09:48:36;;;;;;;33.63;30.33;;;6.00;67.60;;;;;;5058434;28;20909;-45
2023/02/07 09:51:04;;;;;;;37.07;33.30;;;6.30;66.20;;;;;;5058316;28;20470;-44
2023/02/07 09:53:44;;;;;;;35.87;32.43;;;6.60;62.00;;;;;;5058633;28;20423;-43
2023/02/07 09:56:11;;;;;;;35.33;31.83;;;6.60;61.00;;;;;;5059095;28;20422;-43
2023/02/07 09:58:52;;;;;;;34.40;31.00;;;6.60;59.10;;;;;;5060471;28;20442;-44
2023/02/07 10:01:21;;;;;;;34.60;31.20;;;6.90;57.50;;;;;;5062446;28;21341;-45
2023/02/07 10:04:11;;;;;;;34.00;30.53;;;7.40;55.30;;;;;;5062180;28;20970;-46
2023/02/07 10:06:40;;;;;;;32.53;29.37;;;7.60;53.90;;;;;;5061931;28;20419;-44
2023/02/07 10:09:14;;;;;;;33.57;30.33;;;7.90;53.00;;;;;;5061809;28;20444;-46
2023/02/07 10:12:02;;;;;;;33.40;30.10;;;7.90;51.90;;;;;;5062226;28;20843;-44
2023/02/07 10:14:36;;;;;;;32.87;29.77;;;7.90;51.00;;;;;;5062692;28;20410;-44
2023/02/07 10:17:07;;;;;;;33.80;30.47;;;7.90;50.90;;;;;;5060440;28;20737;-46
2023/02/07 10:19:54;;;;;;;32.10;29.10;;;8.00;51.10;;;;;;5062001;28;20509;-44
2023/02/07 10:22:32;;;;;;;32.97;29.70;;;8.30;49.90;;;;;;5062267;28;20629;-48
2023/02/07 10:25:39;;;;;;;34.53;30.93;;;7.30;49.30;;;;;;5061639;28;21397;-43
2023/02/07 10:28:14;;;;;;;34.20;30.90;;;7.10;52.10;;;;;;5053107;28;20743;-44
2023/02/07 10:30:48;;;;;;;32.40;29.43;;;7.50;53.30;;;;;;5062212;28;20427;-45
2023/02/07 10:33:20;;;;;;;32.73;29.57;;;7.90;50.90;;;;;;5062041;28;20416;-47
2023/02/07 10:35:47;;;;;;;33.87;30.67;;;8.30;51.00;;;;;;5062112;28;20418;-45
2023/02/07 10:38:29;;;;;;;32.57;29.40;;;8.50;49.60;;;;;;5061160;28;20451;-45
2023/02/07 10:41:05;;;;;;;34.60;31.47;;;8.60;49.60;;;;;;5061819;28;20475;-48
2023/02/07 10:43:34;;;;;;;33.10;30.00;;;9.20;49.90;;;;;;5061345;28;20422;-44
2023/02/07 10:46:08;;;;;;;34.10;31.10;;;9.20;47.80;;;;;;5061578;28;20510;-46
2023/02/07 10:48:35;;;;;;;34.67;31.37;;;9.70;47.20;;;;;;5061428;28;20977;-44
2023/02/07 10:51:19;;;;;;;34.87;31.60;;;9.90;46.30;;;;;;5061127;28;20581;-46
2023/02/07 10:53:59;;;;;;;34.70;31.40;;;10.10;45.10;;;;;;5060949;28;20872;-46
2023/02/07 10:56:30;;;;;;;34.53;31.10;;;9.80;43.40;;;;;;5061145;28;20412;-44
2023/02/07 10:58:58;;;;;;;34.93;31.83;;;10.10;43.60;;;;;;5060704;28;20416;-45
2023/02/07 11:01:27;;;;;;;35.90;32.70;;;10.50;42.30;;;;;;5061077;28;20464;-47
2023/02/07 11:03:53;;;;;;;37.53;33.93;;;10.30;42.10;;;;;;5060889;28;20414;-45
2023/02/07 11:06:31;;;;;;;35.47;32.30;;;9.80;42.40;;;;;;5061263;28;20940;-44
2023/02/07 11:09:22;;;;;;;35.10;31.77;;;9.60;44.70;;;;;;5060838;28;20412;-44
2023/02/07 11:11:52;;;;;;;35.60;32.00;;;9.50;44.70;;;;;;5061174;28;20420;-46
2023/02/07 11:14:25;;;;;;;37.27;33.80;;;9.70;44.80;;;;;;5061177;28;20417;-45
2023/02/07 11:16:56;;;;;;;34.30;31.10;;;10.00;43.30;;;;;;5061057;28;20410;-46
2023/02/07 11:19:25;;;;;;;33.93;30.97;;;10.50;42.50;;;;;;5060622;28;20413;-43
2023/02/07 11:21:56;;;;;;;34.20;31.20;;;10.90;40.70;;;;;;5060563;28;20458;-45
2023/02/07 11:24:30;;;;;;;36.93;33.53;;;11.40;39.80;;;;;;5060527;28;20409;-43
2023/02/07 11:27:17;;;;;;;35.30;32.00;;;11.10;38.40;;;;;;5060871;28;20415;-44
2023/02/07 11:30:04;;;;;;;34.90;31.30;;;10.10;39.70;;;;;;5060691;28;20411;-46
2023/02/07 11:32:30;;;;;;;38.43;34.63;;;10.60;39.80;;;;;;5060479;28;20407;-45
2023/02/07 11:35:04;;;;;;;33.80;30.80;;;11.10;39.20;;;;;;5060335;28;20442;-45
2023/02/07 11:37:33;;;;;;;36.13;32.80;;;11.10;38.30;;;;;;5059270;28;20274;-45
2023/02/07 11:40:50;;;;;;;34.90;31.70;;;11.00;38.00;;;;;;5060081;28;20439;-45
2023/02/07 11:43:18;;;;;;;34.03;31.03;;;11.00;37.90;;;;;;5047680;28;20442;-48
2023/02/07 11:45:48;;;;;;;35.70;32.40;;;11.30;38.20;;;;;;5059087;28;20438;-47
2023/02/07 11:48:37;;;;;;;36.27;32.97;;;11.30;38.10;;;;;;5059746;28;20411;-45
2023/02/07 11:51:06;;;;;;;37.13;33.67;;;11.60;37.50;;;;;;5060309;28;20455;-48
2023/02/07 11:53:51;;;;;;;36.53;33.23;;;11.30;37.70;;;;;;5059915;28;20422;-46
2023/02/07 11:56:35;;;;;;;34.90;31.90;;;11.10;39.20;;;;;;5059744;28;20423;-47
2023/02/07 11:59:17;;;;;;;34.70;31.47;;;11.50;37.60;;;;;;5059839;28;20458;-47
2023/02/07 12:01:47;;;;;;;34.93;31.83;;;11.40;37.80;;;;;;5059926;28;20470;-43
2023/02/07 12:04:19;;;;;;;35.63;32.33;;;11.70;37.20;;;;;;5059802;28;20702;-47
2023/02/07 12:07:03;;;;;;;36.00;32.90;;;11.70;37.20;;;;;;5060063;28;20539;-44
2023/02/07 12:09:58;;;;;;;35.73;32.73;;;12.00;36.60;;;;;;5059877;28;20889;-48
2023/02/07 12:12:44;;;;;;;37.17;33.67;;;12.40;35.80;;;;;;5059481;28;20676;-46
2023/02/07 12:15:33;;;;;;;36.87;33.57;;;13.00;35.00;;;;;;5058242;28;20782;-45
2023/02/07 12:18:27;;;;;;;35.27;32.17;;;13.40;34.30;;;;;;5059672;28;20893;-47
2023/02/07 12:20:59;;;;;;;35.50;32.30;;;13.10;33.30;;;;;;5059151;28;20455;-47
2023/02/07 12:23:45;;;;;;;36.87;33.60;;;12.30;33.40;;;;;;5059592;28;20741;-46
2023/02/07 12:26:28;;;;;;;36.43;33.33;;;12.30;34.30;;;;;;5059674;28;20970;-45
2023/02/07 12:29:29;;;;;;;35.67;32.40;;;12.60;33.50;;;;;;5059191;28;20768;-46
2023/02/07 12:32:12;;;;;;;34.70;31.63;;;12.40;33.60;;;;;;5059526;28;20419;-44
2023/02/07 12:34:49;;;;;;;35.27;32.37;;;12.40;34.90;;;;;;5059497;28;20506;-43
2023/02/07 12:37:20;;;;;;;36.27;33.00;;;12.20;34.80;;;;;;5059424;28;20887;-46
2023/02/07 12:39:58;;;;;;;34.50;31.50;;;12.10;35.20;;;;;;5059214;28;20694;-45
2023/02/07 12:42:25;;;;;;;35.07;31.83;;;12.00;34.30;;;;;;5059265;28;21077;-46
2023/02/07 12:44:55;;;;;;;36.13;32.80;;;12.00;34.10;;;;;;5059418;28;20806;-48
2023/02/07 12:47:46;;;;;;;34.33;31.33;;;12.50;34.40;;;;;;5059554;28;20449;-45